Time;durP1;ratioP1;P1;durP2;ratioP2;P2;SDS_P1;SDS_P2;PMS_P1;PMS_P2;Temp;Humidity;BMP_temperature;BMP_pressure;BME280_temperature;BME280_humidity;BME280_pressure;Samples;Min_cycle;Max_cycle;Signal;HPM_P1;HPM_P2
2022/08/11 00:02:27;;;;;;;15.77;14.10;;;;;;;16.78;97.70;102586.25;5040426;28;20937;-45
2022/08/11 00:04:57;;;;;;;17.00;13.67;;;;;;;16.77;97.95;102589.97;5035308;28;20432;-42
2022/08/11 00:07:28;;;;;;;17.80;14.50;;;;;;;16.76;98.20;102584.75;5034857;28;20550;-46
2022/08/11 00:09:56;;;;;;;16.70;15.30;;;;;;;16.73;98.65;102580.59;5035195;28;20458;-46
2022/08/11 00:12:26;;;;;;;16.10;14.37;;;;;;;16.68;98.91;102585.72;5034759;28;20428;-44
2022/08/11 00:14:59;;;;;;;14.40;13.10;;;;;;;16.67;99.37;102585.91;5034861;28;20428;-46
2022/08/11 00:17:28;;;;;;;18.63;16.57;;;;;;;16.66;99.55;102595.03;5034894;28;20451;-43
2022/08/11 00:20:03;;;;;;;16.57;15.00;;;;;;;16.64;99.61;102583.59;5034752;28;20472;-43
2022/08/11 00:22:47;;;;;;;20.23;18.10;;;;;;;16.63;100.00;102584.63;5034617;28;20522;-44
2022/08/11 00:25:16;;;;;;;21.23;18.80;;;;;;;16.61;100.00;102579.44;5034786;28;20626;-44
2022/08/11 00:27:44;;;;;;;19.43;17.80;;;;;;;16.61;100.00;102581.31;5034260;28;21415;-45
2022/08/11 00:30:13;;;;;;;22.27;19.97;;;;;;;16.59;100.00;102576.09;5034827;28;20805;-43
2022/08/11 00:32:43;;;;;;;21.63;17.47;;;;;;;16.57;100.00;102587.09;5034413;28;20435;-44
2022/08/11 00:35:15;;;;;;;19.73;17.50;;;;;;;16.56;100.00;102582.72;5032326;28;20422;-47
2022/08/11 00:38:06;;;;;;;24.30;20.23;;;;;;;16.55;100.00;102574.81;5038314;28;20466;-42
2022/08/11 00:40:48;;;;;;;22.07;19.80;;;;;;;16.51;100.00;102571.66;5054562;28;20569;-44
2022/08/11 00:43:23;;;;;;;21.53;19.23;;;;;;;16.50;100.00;102582.59;5054188;28;20439;-45
2022/08/11 00:46:08;;;;;;;22.67;20.43;;;;;;;16.48;100.00;102579.28;5054088;28;20427;-45
2022/08/11 00:48:45;;;;;;;24.90;22.30;;;;;;;16.47;100.00;102572.22;5053907;28;20459;-45
2022/08/11 00:51:25;;;;;;;26.00;23.50;;;;;;;16.45;100.00;102575.13;5054344;28;20419;-48
2022/08/11 00:54:39;;;;;;;24.77;21.13;;;;;;;16.44;100.00;102573.44;5054079;28;20809;-47
2022/08/11 00:57:34;;;;;;;29.60;25.60;;;;;;;16.42;100.00;102571.97;5053960;28;20435;-45
2022/08/11 01:00:12;;;;;;;25.17;22.50;;;;;;;16.38;100.00;102578.75;5053827;28;20470;-51
2022/08/11 01:03:06;;;;;;;27.23;24.37;;;;;;;16.36;100.00;102586.19;5053669;28;20932;-42
2022/08/11 01:05:45;;;;;;;26.60;23.83;;;;;;;16.34;100.00;102572.91;5041397;28;20441;-45
2022/08/11 01:08:51;;;;;;;28.30;23.33;;;;;;;16.30;100.00;102576.19;5053320;28;20821;-45
2022/08/11 01:11:56;;;;;;;26.87;24.10;;;;;;;16.25;100.00;102579.41;5053635;28;20434;-44
2022/08/11 01:14:50;;;;;;;25.30;22.47;;;;;;;16.21;100.00;102569.22;5017390;28;20442;-44
2022/08/11 01:18:03;;;;;;;24.70;22.10;;;;;;;16.17;100.00;102565.25;5053589;28;20956;-42
2022/08/11 01:21:06;;;;;;;29.27;24.10;;;;;;;16.12;100.00;102568.50;5033640;28;20467;-47
2022/08/11 01:24:07;;;;;;;26.13;23.40;;;;;;;16.09;100.00;102568.88;5033431;28;20431;-46
2022/08/11 01:27:12;;;;;;;32.23;27.87;;;;;;;16.05;100.00;102570.28;5000981;28;20451;-49
2022/08/11 01:30:17;;;;;;;27.27;24.47;;;;;;;15.98;100.00;102569.34;5033003;28;20468;-46
2022/08/11 01:33:08;;;;;;;28.80;23.80;;;;;;;15.95;100.00;102573.25;5033577;28;20446;-42
2022/08/11 01:35:55;;;;;;;26.27;23.60;;;;;;;15.93;100.00;102569.94;5025182;28;20431;-47
2022/08/11 01:39:04;;;;;;;26.90;24.20;;;;;;;15.91;100.00;102566.59;5026262;28;20466;-42
2022/08/11 01:45:06;;;;;;;27.97;23.90;;;;;;;15.86;100.00;102569.00;5033233;28;20960;-43
2022/08/11 01:47:51;;;;;;;31.50;26.17;;;;;;;15.85;100.00;102575.41;5032616;28;20463;-43
2022/08/11 01:50:28;;;;;;;28.23;25.13;;;;;;;15.86;100.00;102571.69;5033232;28;20432;-44
2022/08/11 01:53:11;;;;;;;28.77;25.77;;;;;;;15.85;100.00;102564.66;5032821;28;20440;-44
2022/08/11 01:55:49;;;;;;;30.60;24.37;;;;;;;15.80;100.00;102567.06;5033160;28;20432;-44
2022/08/11 01:58:29;;;;;;;21.63;19.60;;;;;;;15.75;100.00;102566.78;5025338;28;20970;-44
2022/08/11 02:01:20;;;;;;;29.03;25.87;;;;;;;15.71;100.00;102570.84;5012823;28;20477;-44
2022/08/11 02:03:56;;;;;;;29.20;25.80;;;;;;;15.72;100.00;102566.31;5013122;28;20440;-45
2022/08/11 02:09:32;;;;;;;30.43;27.37;;;;;;;15.72;100.00;102560.94;5012724;28;20544;-46
2022/08/11 02:12:12;;;;;;;33.30;29.97;;;;;;;15.71;100.00;102568.16;5012826;28;21083;-46
2022/08/11 02:14:48;;;;;;;37.60;28.93;;;;;;;15.71;100.00;102560.09;5013290;28;20441;-42
2022/08/11 02:17:41;;;;;;;35.53;29.07;;;;;;;15.71;100.00;102561.97;5012219;28;20453;-45
2022/08/11 02:26:23;;;;;;;27.87;23.90;;;;;;;15.53;100.00;102564.19;5012568;28;20464;-45
2022/08/11 02:29:03;;;;;;;30.30;25.57;;;;;;;15.45;100.00;102557.84;5012378;28;20465;-44
2022/08/11 02:34:59;;;;;;;27.33;19.73;;;;;;;15.21;100.00;102559.94;5012629;28;20796;-44
2022/08/11 02:37:37;;;;;;;27.83;23.57;;;;;;;15.11;100.00;102557.53;5011969;28;20452;-44
2022/08/11 02:40:16;;;;;;;21.43;19.43;;;;;;;15.04;100.00;102564.66;5012592;28;20428;-43
2022/08/11 02:43:00;;;;;;;21.53;19.40;;;;;;;14.96;100.00;102562.03;5012171;28;20488;-44
2022/08/11 02:45:53;;;;;;;20.60;18.47;;;;;;;14.86;100.00;102564.97;5012794;28;20434;-43
2022/08/11 02:51:29;;;;;;;19.87;17.77;;;;;;;14.72;100.00;102560.41;5012259;28;20429;-42
2022/08/11 02:54:07;;;;;;;18.60;16.80;;;;;;;14.68;100.00;102569.81;5012167;28;20456;-45
2022/08/11 02:56:43;;;;;;;22.20;19.90;;;;;;;14.64;100.00;102568.50;5012375;28;20452;-44
2022/08/11 03:02:22;;;;;;;24.93;21.07;;;;;;;14.50;100.00;102569.28;5001772;28;20485;-42
2022/08/11 03:05:02;;;;;;;21.50;19.50;;;;;;;14.43;100.00;102576.34;5012288;28;20436;-45
2022/08/11 03:07:36;;;;;;;23.50;21.07;;;;;;;14.38;100.00;102574.22;5011522;28;20456;-47
2022/08/11 03:10:10;;;;;;;23.80;21.40;;;;;;;14.32;100.00;102563.31;5012037;28;20520;-45
2022/08/11 03:18:41;;;;;;;20.13;18.20;;;;;;;14.16;100.00;102556.19;5011454;28;20472;-42
2022/08/11 03:21:17;;;;;;;22.30;20.20;;;;;;;14.14;100.00;102552.00;5012110;28;20492;-47
2022/08/11 03:23:55;;;;;;;22.60;20.33;;;;;;;14.15;100.00;102556.38;5011791;28;20432;-49
2022/08/11 03:26:28;;;;;;;25.07;22.67;;;;;;;14.14;100.00;102562.75;5011973;28;20455;-46
2022/08/11 03:29:06;;;;;;;24.30;21.90;;;;;;;14.12;100.00;102562.94;5011499;28;20556;-49
2022/08/11 03:31:44;;;;;;;27.13;24.33;;;;;;;14.11;100.00;102557.72;5016202;28;20933;-47
2022/08/11 03:34:17;;;;;;;24.03;21.90;;;;;;;14.08;100.00;102563.44;5016038;28;20979;-47
2022/08/11 03:37:06;;;;;;;24.73;22.30;;;;;;;14.04;100.00;102556.75;5015913;28;20453;-46
2022/08/11 03:39:59;;;;;;;25.67;23.30;;;;;;;14.02;100.00;102556.09;5015761;28;21060;-51
2022/08/11 03:42:41;;;;;;;21.53;19.43;;;;;;;13.97;100.00;102559.31;5015359;28;20531;-46
2022/08/11 03:45:21;;;;;;;24.83;21.80;;;;;;;13.93;100.00;102551.78;5016350;28;20428;-48
2022/08/11 03:48:00;;;;;;;25.57;23.07;;;;;;;13.91;100.00;102551.13;5015222;28;20463;-50
2022/08/11 03:51:05;;;;;;;28.20;25.60;;;;;;;13.90;100.00;102557.50;5015815;28;20944;-49
2022/08/11 03:53:48;;;;;;;26.97;24.20;;;;;;;13.87;100.00;102556.00;4935655;29;20444;-50
2022/08/11 03:56:57;;;;;;;25.57;23.07;;;;;;;13.88;100.00;102555.00;5009092;28;20465;-50
2022/08/11 04:00:06;;;;;;;25.63;23.13;;;;;;;13.93;100.00;102552.63;4952344;28;20461;-48
2022/08/11 04:03:14;;;;;;;28.93;25.80;;;;;;;13.99;100.00;102556.44;5015913;28;20480;-43
2022/08/11 04:06:20;;;;;;;27.40;24.70;;;;;;;14.05;100.00;102551.22;5015560;28;20958;-43
2022/08/11 04:09:22;;;;;;;27.23;24.33;;;;;;;14.11;100.00;102561.25;5015296;28;20997;-45
2022/08/11 04:12:09;;;;;;;25.10;22.60;;;;;;;14.19;100.00;102563.03;5015247;28;20440;-43
2022/08/11 04:18:30;;;;;;;33.93;28.80;;;;;;;14.50;100.00;102561.22;5014579;28;20834;-43
2022/08/11 04:21:40;;;;;;;56.03;34.47;;;;;;;14.65;100.00;102556.75;5015020;28;20926;-45
2022/08/11 04:24:35;;;;;;;57.37;31.67;;;;;;;14.79;100.00;102552.44;4981982;28;20807;-44
2022/08/11 04:27:27;;;;;;;125.50;33.83;;;;;;;14.96;100.00;102559.34;5014808;28;20449;-47
2022/08/11 04:30:08;;;;;;;91.23;31.43;;;;;;;15.13;100.00;102551.97;5014839;28;20444;-46
2022/08/11 04:33:03;;;;;;;349.90;55.07;;;;;;;15.27;100.00;102552.00;5014724;28;20429;-44
2022/08/11 04:35:42;;;;;;;295.37;47.10;;;;;;;15.42;100.00;102554.69;5014698;28;20930;-45
2022/08/11 04:38:38;;;;;;;123.43;34.90;;;;;;;15.54;100.00;102547.88;5008429;28;20825;-45
2022/08/11 04:41:31;;;;;;;49.73;27.80;;;;;;;15.65;100.00;102554.66;5014398;28;20429;-52
2022/08/11 04:44:25;;;;;;;45.07;26.10;;;;;;;15.77;100.00;102551.28;5014614;28;20484;-46
2022/08/11 04:47:04;;;;;;;68.73;30.50;;;;;;;15.89;100.00;102557.03;5014521;28;20615;-48
2022/08/11 05:02:41;;;;;;;77.40;34.40;;;;;;;16.63;100.00;102549.63;5013927;28;20559;-50
2022/08/11 05:05:31;;;;;;;73.63;36.63;;;;;;;16.87;100.00;102552.75;5012072;28;20451;-48
2022/08/11 05:08:40;;;;;;;167.67;39.90;;;;;;;16.99;100.00;102556.56;5013667;28;20471;-48
2022/08/11 05:11:43;;;;;;;43.30;28.10;;;;;;;17.20;100.00;102554.88;5014310;28;20939;-51
2022/08/11 05:34:49;;;;;;;25.17;17.57;;;;;;;20.04;100.00;102554.13;5013713;28;20437;-47
2022/08/11 05:37:22;;;;;;;42.33;18.17;;;;;;;20.83;100.00;102554.50;5013707;28;20441;-44
2022/08/11 05:56:58;;;;;;;10.13;9.63;;;;;;;27.55;62.78;102552.25;5013656;28;21103;-44
2022/08/11 05:59:28;;;;;;;9.47;8.97;;;;;;;28.08;60.39;102547.56;5012792;28;20479;-46
2022/08/11 06:02:01;;;;;;;9.03;8.50;;;;;;;28.68;59.25;102546.84;5013192;28;20439;-45
2022/08/11 06:04:30;;;;;;;8.97;8.47;;;;;;;29.07;56.27;102559.75;5013065;28;20440;-45
2022/08/11 06:07:01;;;;;;;8.50;8.10;;;;;;;29.36;52.22;102556.44;5012961;28;20999;-45
2022/08/11 06:09:33;;;;;;;8.73;8.30;;;;;;;29.50;53.51;102557.50;5012558;28;20464;-46
2022/08/11 06:12:03;;;;;;;9.30;8.70;;;;;;;29.93;46.83;102556.78;5013110;28;20213;-47
2022/08/11 06:14:33;;;;;;;9.30;8.73;;;;;;;29.77;52.53;102552.44;5013162;28;20811;-44
2022/08/11 06:17:04;;;;;;;9.07;8.50;;;;;;;29.82;45.24;102549.69;5012805;28;20224;-47
2022/08/11 06:19:38;;;;;;;9.00;8.53;;;;;;;30.00;51.70;102556.47;5012521;28;20225;-44
2022/08/11 06:22:09;;;;;;;8.97;8.47;;;;;;;30.01;48.53;102556.22;5012804;28;20432;-50
2022/08/11 06:24:40;;;;;;;7.90;7.50;;;;;;;29.79;46.14;102547.47;5012982;28;20201;-48
2022/08/11 06:27:08;;;;;;;7.77;7.30;;;;;;;29.78;45.41;102550.53;5012788;28;20324;-49
2022/08/11 06:29:49;;;;;;;7.63;7.23;;;;;;;29.80;47.05;102551.88;5012436;28;20226;-48
2022/08/11 06:32:26;;;;;;;8.03;7.63;;;;;;;30.16;47.85;102547.03;5012708;28;20229;-46
2022/08/11 06:35:14;;;;;;;8.50;8.00;;;;;;;30.30;44.55;102544.47;5012761;28;20201;-50
2022/08/11 06:37:53;;;;;;;8.03;7.63;;;;;;;29.55;45.32;102549.22;5011957;28;20729;-46
2022/08/11 06:40:35;;;;;;;8.40;7.70;;;;;;;29.76;45.41;102550.78;5012539;28;20201;-46
2022/08/11 06:43:15;;;;;;;7.43;7.13;;;;;;;29.93;46.41;102551.28;5012461;28;20220;-46
2022/08/11 06:45:51;;;;;;;8.50;7.90;;;;;;;29.51;48.41;102545.41;5012564;28;20204;-45
2022/08/11 06:48:23;;;;;;;7.93;7.40;;;;;;;29.14;47.72;102556.72;5012121;28;20221;-47
2022/08/11 06:53:43;;;;;;;6.97;6.50;;;;;;;29.57;49.46;102552.50;5012234;28;20193;-46
2022/08/11 07:02:49;;;;;;;6.05;5.70;;;;;;;30.02;49.17;102555.09;4970526;28;20225;-47
2022/08/11 07:05:22;;;;;;;7.20;6.70;;;;;;;29.51;47.59;102553.66;4970958;28;20572;-46
2022/08/11 07:17:20;;;;;;;5.27;4.90;;;;;;;29.84;45.01;102543.94;5011993;28;20222;-48
2022/08/11 07:31:12;;;;;;;6.20;5.70;;;;;;;29.50;47.82;102541.00;5011756;28;20200;-45
2022/08/11 07:33:45;;;;;;;6.00;5.50;;;;;;;29.42;48.15;102531.38;5011623;28;20280;-45
2022/08/11 07:36:34;;;;;;;5.90;5.60;;;;;;;28.97;46.60;102543.25;5011868;28;20217;-47
2022/08/11 07:39:03;;;;;;;7.00;6.50;;;;;;;28.76;48.78;102546.31;4991937;28;20236;-44
2022/08/11 07:41:34;;;;;;;6.00;5.80;;;;;;;28.87;48.69;102540.56;4992237;28;20209;-46
2022/08/11 07:44:08;;;;;;;6.40;6.07;;;;;;;28.69;46.87;102541.09;4991913;28;20222;-46
2022/08/11 07:52:31;;;;;;;5.60;5.10;;;;;;;27.09;50.16;102531.94;4992005;28;20444;-48
2022/08/11 07:55:02;;;;;;;5.50;5.10;;;;;;;26.43;51.17;102532.50;4992125;28;20923;-45
2022/08/11 08:20:38;;;;;;;4.20;4.00;;;;;;;25.44;55.21;102540.84;4995359;28;20935;-46
2022/08/11 08:23:06;;;;;;;6.70;4.10;;;;;;;25.72;55.15;102539.84;4995649;28;20472;-45
2022/08/11 08:25:37;;;;;;;4.63;4.03;;;;;;;26.02;53.95;102542.97;4995501;28;20433;-47
2022/08/11 08:28:09;;;;;;;5.97;4.40;;;;;;;26.04;54.18;102538.09;4994862;28;20842;-47
2022/08/11 08:30:46;;;;;;;4.90;4.43;;;;;;;25.95;54.07;102528.69;4995198;28;20421;-45
2022/08/11 08:33:17;;;;;;;4.93;4.50;;;;;;;26.08;53.45;102538.38;4995349;28;20472;-46
2022/08/11 08:35:45;;;;;;;5.90;4.50;;;;;;;25.87;54.73;102545.50;5012165;28;20794;-46
2022/08/11 08:38:22;;;;;;;5.27;4.53;;;;;;;25.67;54.93;102551.56;5014727;28;20996;-50
2022/08/11 08:40:53;;;;;;;4.53;4.23;;;;;;;25.70;54.25;102545.59;5014784;28;20798;-48
2022/08/11 08:43:25;;;;;;;5.90;4.37;;;;;;;25.62;55.36;102542.47;5014289;28;20472;-44
2022/08/11 08:45:57;;;;;;;4.87;4.50;;;;;;;25.45;56.11;102537.00;5014577;28;20440;-47
2022/08/11 08:48:26;;;;;;;5.50;4.93;;;;;;;25.51;56.45;102533.31;5014460;28;20476;-49
2022/08/11 08:53:51;;;;;;;6.00;4.83;;;;;;;25.30;55.31;102534.06;5014448;28;20443;-45
2022/08/11 08:56:28;;;;;;;4.33;3.97;;;;;;;25.46;55.61;102533.22;5014865;28;20486;-44
2022/08/11 08:59:00;;;;;;;4.20;3.90;;;;;;;25.66;53.66;102536.25;5014041;28;20558;-47
2022/08/11 09:01:30;;;;;;;4.40;4.00;;;;;;;25.55;55.41;102533.63;5014590;28;20439;-50
2022/08/11 09:03:58;;;;;;;4.30;4.00;;;;;;;25.67;55.65;102532.44;5014116;28;20530;-48
2022/08/11 09:06:38;;;;;;;5.30;4.50;;;;;;;25.55;55.99;102529.00;5014369;28;20455;-50
2022/08/11 09:09:08;;;;;;;5.30;4.50;;;;;;;25.42;56.67;102531.25;5013858;28;20493;-47
2022/08/11 09:11:52;;;;;;;4.40;4.00;;;;;;;25.59;54.55;102530.16;5014383;28;20439;-45
2022/08/11 09:14:24;;;;;;;4.00;3.70;;;;;;;25.57;54.12;102529.56;5014117;28;20433;-48
2022/08/11 09:16:53;;;;;;;4.00;3.80;;;;;;;25.55;54.83;102528.16;5014211;28;20452;-47
2022/08/11 09:19:21;;;;;;;5.30;3.60;;;;;;;25.66;53.76;102535.41;5013596;28;20471;-48
2022/08/11 09:26:58;;;;;;;5.00;3.87;;;;;;;25.66;53.34;102524.47;5014088;28;20433;-46
2022/08/11 09:27:26;;;;;;;4.20;3.37;;;;;;;25.76;53.35;102524.63;5012438;28;20445;-47
2022/08/11 09:29:56;;;;;;;4.70;3.90;;;;;;;25.85;53.35;102520.34;5013982;28;20436;-48
2022/08/11 09:32:23;;;;;;;3.90;3.57;;;;;;;25.99;51.66;102512.56;5013691;28;20925;-48
2022/08/11 09:34:53;;;;;;;3.93;3.83;;;;;;;25.94;54.13;102515.25;5013706;28;20536;-46
2022/08/11 09:40:30;;;;;;;3.57;3.37;;;;;;;26.10;52.00;102508.88;5013690;28;20467;-51
2022/08/11 09:45:51;;;;;;;4.80;4.40;;;;;;;25.89;53.46;102509.75;5013280;28;20480;-46
2022/08/11 09:48:19;;;;;;;4.80;3.60;;;;;;;26.18;52.23;102500.25;5013319;28;21015;-45
2022/08/11 09:50:50;;;;;;;3.53;3.33;;;;;;;26.41;51.92;102505.38;5013661;28;20803;-47
2022/08/11 09:53:19;;;;;;;4.53;4.27;;;;;;;26.25;50.97;102493.47;5013608;28;20447;-49
2022/08/11 09:58:55;;;;;;;5.00;3.73;;;;;;;26.54;48.63;102488.53;5013013;28;20586;-45
2022/08/11 10:01:29;;;;;;;3.57;3.03;;;;;;;26.42;50.02;102487.88;5013369;28;20439;-45
2022/08/11 10:04:00;;;;;;;4.47;4.17;;;;;;;26.36;51.13;102483.47;5013167;28;20441;-45
2022/08/11 10:09:24;;;;;;;3.70;3.40;;;;;;;26.62;48.69;102492.69;5012813;28;20469;-44
2022/08/11 10:11:56;;;;;;;4.07;3.23;;;;;;;26.70;49.73;102482.09;5013006;28;20432;-44
2022/08/11 10:17:15;;;;;;;7.10;3.67;;;;;;;26.83;48.26;102472.63;5021413;23;20485;-43
2022/08/11 10:19:46;;;;;;;6.20;4.30;;;;;;;26.72;47.93;102473.63;4992824;28;20465;-44
2022/08/11 10:28:04;;;;;;;6.40;3.40;;;;;;;26.88;46.65;102469.97;4973553;28;20461;-44
2022/08/11 10:34:00;;;;;;;3.50;3.20;;;;;;;27.00;46.93;102461.53;4973316;28;20497;-44
2022/08/11 10:36:29;;;;;;;3.70;3.40;;;;;;;26.70;49.30;102462.94;4977114;28;20475;-47
2022/08/11 10:38:59;;;;;;;3.80;3.47;;;;;;;26.96;49.44;102461.25;4991721;28;20465;-45
2022/08/11 10:44:38;;;;;;;3.67;3.37;;;;;;;27.35;46.96;102458.97;4992695;28;20476;-44
2022/08/11 11:00:57;;;;;;;3.60;3.40;;;;;;;27.63;46.44;102455.03;4992535;28;21241;-44
2022/08/11 11:03:26;;;;;;;4.10;3.83;;;;;;;27.33;43.37;102455.66;4992596;28;20473;-46
2022/08/11 11:06:02;;;;;;;3.80;3.60;;;;;;;27.35;44.91;102453.50;4992531;28;20477;-49
2022/08/11 11:08:54;;;;;;;3.83;3.53;;;;;;;27.25;45.81;102459.75;4992252;28;20457;-47
2022/08/11 11:20:07;;;;;;;3.87;3.57;;;;;;;27.25;44.18;102453.44;4992361;28;20450;-45
2022/08/11 11:23:03;;;;;;;3.73;3.47;;;;;;;27.41;45.06;102447.78;4992752;28;20437;-44
2022/08/11 11:26:05;;;;;;;3.57;3.23;;;;;;;27.65;43.89;102458.31;4992204;28;20839;-44
2022/08/11 11:28:46;;;;;;;3.40;3.23;;;;;;;27.55;44.10;102459.09;4991770;28;20461;-46
2022/08/11 11:31:30;;;;;;;3.73;3.53;;;;;;;27.54;48.36;102459.38;4992388;28;20433;-42
2022/08/11 11:34:14;;;;;;;3.73;3.53;;;;;;;27.40;47.33;102453.50;4989849;28;20442;-46
2022/08/11 11:36:47;;;;;;;3.30;3.10;;;;;;;27.46;48.38;102452.47;4981541;28;20849;-48
2022/08/11 11:39:20;;;;;;;3.77;3.50;;;;;;;27.94;43.73;102459.47;4991937;28;20469;-44
2022/08/11 11:41:49;;;;;;;3.13;3.00;;;;;;;28.16;41.56;102448.28;4992459;28;20491;-48
2022/08/11 11:44:17;;;;;;;4.87;4.17;;;;;;;28.30;42.11;102461.19;4992239;28;20768;-44
2022/08/11 11:46:45;;;;;;;5.30;3.70;;;;;;;28.50;40.99;102460.34;4991927;28;21269;-41
2022/08/11 11:49:17;;;;;;;3.70;3.50;;;;;;;28.29;41.63;102456.78;4991759;28;20483;-43
2022/08/11 11:51:46;;;;;;;4.20;3.90;;;;;;;27.89;43.62;102453.97;4995236;28;20433;-44
2022/08/11 11:54:22;;;;;;;3.90;3.57;;;;;;;27.82;43.29;102447.94;4995870;28;20430;-46
2022/08/11 11:56:52;;;;;;;3.57;3.37;;;;;;;27.90;41.97;102448.22;4995859;28;20445;-45
2022/08/11 12:02:07;;;;;;;4.70;4.30;;;;;;;27.81;43.81;102447.09;4995792;28;20939;-41
2022/08/11 12:04:42;;;;;;;3.23;3.10;;;;;;;28.02;43.78;102446.03;4995996;28;20437;-46
2022/08/11 12:09:59;;;;;;;5.93;3.67;;;;;;;28.18;43.14;102435.13;4996080;28;20441;-44
2022/08/11 12:15:13;;;;;;;7.00;3.33;;;;;;;28.15;40.55;102427.44;4995763;28;20430;-43
2022/08/11 12:17:40;;;;;;;4.10;3.83;;;;;;;28.21;39.04;102429.09;4995019;28;20812;-45
2022/08/11 12:20:09;;;;;;;7.23;3.23;;;;;;;28.22;39.65;102441.72;4995493;28;20437;-43
2022/08/11 12:28:50;;;;;;;4.17;3.80;;;;;;;28.55;38.17;102430.19;4994912;28;20982;-45
2022/08/11 12:31:24;;;;;;;4.07;3.77;;;;;;;28.61;38.50;102429.09;4995648;28;20460;-45
2022/08/11 12:33:52;;;;;;;5.40;3.30;;;;;;;28.58;39.44;102429.63;4993677;28;20438;-43
2022/08/11 12:36:22;;;;;;;4.23;3.80;;;;;;;28.53;39.66;102413.16;4983736;28;20533;-46
2022/08/11 12:38:51;;;;;;;3.50;3.30;;;;;;;28.58;41.58;102422.19;4992803;28;20468;-46
2022/08/11 12:46:59;;;;;;;4.27;3.97;;;;;;;28.60;39.96;102408.22;4994865;28;20477;-44
2022/08/11 12:52:22;;;;;;;4.47;4.07;;;;;;;28.93;37.03;102393.88;4994796;28;20437;-42
2022/08/11 12:54:56;;;;;;;4.20;3.47;;;;;;;28.97;37.06;102405.94;4995012;28;20961;-42
2022/08/11 13:05:55;;;;;;;6.90;3.90;;;;;;;28.94;36.96;102401.00;4994551;28;20484;-48
2022/08/11 13:08:24;;;;;;;4.93;4.00;;;;;;;28.79;35.34;102400.25;4994471;28;20457;-45
2022/08/11 13:13:43;;;;;;;3.00;2.80;;;;;;;28.80;35.95;102394.47;4994516;28;20441;-42
2022/08/11 13:16:25;;;;;;;4.13;3.83;;;;;;;28.88;37.58;102393.88;4994099;28;20461;-47
2022/08/11 13:18:53;;;;;;;5.20;4.40;;;;;;;28.83;38.33;102393.91;4993147;28;20834;-45
2022/08/11 13:21:22;;;;;;;3.70;3.50;;;;;;;28.81;37.69;102385.13;4993562;28;20437;-46
2022/08/11 13:23:52;;;;;;;3.97;3.50;;;;;;;28.86;36.84;102389.78;4993247;28;20449;-44
2022/08/11 13:26:30;;;;;;;4.57;3.60;;;;;;;28.86;37.98;102382.38;4993110;28;20487;-44
2022/08/11 13:29:24;;;;;;;3.30;3.10;;;;;;;28.67;39.03;102389.56;4992969;28;20551;-46
2022/08/11 13:31:54;;;;;;;4.00;3.60;;;;;;;28.66;37.99;102382.44;4993447;28;20433;-44
2022/08/11 13:34:25;;;;;;;4.97;3.57;;;;;;;28.61;37.90;102384.34;4987515;28;20439;-43
2022/08/11 13:36:55;;;;;;;3.53;3.23;;;;;;;28.44;39.96;102381.88;4983846;28;20442;-45
2022/08/11 13:39:25;;;;;;;6.50;4.00;;;;;;;28.56;39.14;102371.44;4992689;28;20462;-44
2022/08/11 13:41:55;;;;;;;4.03;3.60;;;;;;;28.61;39.55;102376.09;4993396;28;20433;-43
2022/08/11 13:44:27;;;;;;;4.07;3.77;;;;;;;28.62;37.39;102375.81;4992918;28;20485;-44
2022/08/11 13:46:57;;;;;;;9.63;3.23;;;;;;;28.71;38.22;102390.66;4993036;28;20481;-45
2022/08/11 13:49:26;;;;;;;4.50;4.20;;;;;;;28.63;38.71;102371.16;4992527;28;20888;-44
2022/08/11 13:51:55;;;;;;;5.00;3.20;;;;;;;28.48;39.47;102369.25;4993080;28;20437;-46
2022/08/11 13:54:26;;;;;;;5.97;3.67;;;;;;;28.37;39.14;102376.69;4992818;28;20440;-45
2022/08/11 13:56:56;;;;;;;6.27;3.80;;;;;;;28.34;39.37;102368.19;4993077;28;20445;-44
2022/08/11 13:59:26;;;;;;;5.60;3.60;;;;;;;28.20;38.99;102364.34;4992447;28;20469;-46
2022/08/11 14:02:02;;;;;;;3.70;3.50;;;;;;;28.14;39.01;102363.53;4992743;28;20438;-44
2022/08/11 14:04:54;;;;;;;3.83;3.50;;;;;;;28.17;40.73;102353.91;4992999;28;20442;-48
2022/08/11 14:07:25;;;;;;;5.73;3.77;;;;;;;28.23;39.52;102355.56;4992852;28;20473;-46
2022/08/11 14:09:58;;;;;;;3.80;3.70;;;;;;;28.20;39.40;102356.09;4992219;28;20438;-43
2022/08/11 14:15:19;;;;;;;9.47;4.37;;;;;;;28.16;38.82;102339.41;4988661;28;20500;-42
2022/08/11 14:17:51;;;;;;;3.77;3.57;;;;;;;28.07;39.39;102343.78;4933867;28;1043684;-46
2022/08/11 14:20:20;;;;;;;4.13;3.80;;;;;;;27.97;38.46;102339.09;4972397;28;20269;-45
2022/08/11 14:23:09;;;;;;;4.20;3.80;;;;;;;28.14;39.00;102341.56;4972634;28;20452;-45
2022/08/11 14:26:22;;;;;;;4.07;3.77;;;;;;;28.18;39.24;102339.13;4964272;28;20435;-49
2022/08/11 14:28:32;;;;;;;4.10;3.80;;;;;;;28.38;38.92;102328.09;4953852;28;20607;-45
2022/08/11 14:31:10;;;;;;;3.67;3.40;;;;;;;28.45;38.60;102334.97;4954361;28;20463;-46
2022/08/11 14:33:38;;;;;;;4.00;3.60;;;;;;;28.27;37.54;102335.53;4954292;28;20447;-44
2022/08/11 14:36:28;;;;;;;4.20;3.90;;;;;;;28.43;38.32;102336.34;4976009;28;20438;-44
2022/08/11 14:38:56;;;;;;;3.93;3.63;;;;;;;28.46;37.73;102333.84;4991773;28;20468;-43
2022/08/11 14:47:19;;;;;;;4.10;3.13;;;;;;;28.50;37.63;102334.13;4993000;28;20481;-45
2022/08/11 14:49:54;;;;;;;10.13;3.77;;;;;;;28.51;37.82;102338.50;4992514;28;20838;-44
2022/08/11 14:52:38;;;;;;;5.40;3.33;;;;;;;28.50;38.43;102334.94;4992675;28;20434;-46
2022/08/11 14:58:03;;;;;;;6.03;3.30;;;;;;;28.58;37.89;102338.22;4979529;28;20465;-45
2022/08/11 15:00:32;;;;;;;3.90;3.20;;;;;;;28.34;38.44;102336.09;4992626;28;20437;-46
2022/08/11 15:03:11;;;;;;;4.83;3.10;;;;;;;28.16;38.54;102328.44;4992869;28;20434;-46
2022/08/11 15:05:47;;;;;;;3.13;3.03;;;;;;;28.06;39.08;102335.81;4992642;28;20433;-45
2022/08/11 15:12:07;;;;;;;3.23;3.03;;;;;;;27.88;39.01;102331.69;4992309;28;21009;-43
2022/08/11 15:13:59;;;;;;;4.43;3.20;;;;;;;27.84;39.29;102330.56;4992215;28;20441;-46
2022/08/11 15:19:18;;;;;;;3.30;2.97;;;;;;;27.81;39.74;102314.69;4992090;28;20476;-45
2022/08/11 15:24:34;;;;;;;3.03;2.93;;;;;;;27.97;39.66;102322.66;4991941;28;20441;-45
2022/08/11 15:38:35;;;;;;;2.97;2.70;;;;;;;27.64;40.09;102311.38;4987790;28;20481;-48
2022/08/11 15:46:42;;;;;;;3.07;2.87;;;;;;;27.59;39.56;102303.16;4992008;28;20473;-43
2022/08/11 15:49:13;;;;;;;3.63;3.30;;;;;;;27.66;39.92;102307.28;4991884;28;20472;-43
2022/08/11 15:51:57;;;;;;;3.03;2.73;;;;;;;27.63;39.49;102307.81;4992243;28;20901;-42
2022/08/11 15:54:31;;;;;;;3.00;2.80;;;;;;;27.47;40.02;102303.44;4992026;28;20480;-42
2022/08/11 15:57:01;;;;;;;3.50;3.20;;;;;;;27.52;40.17;102300.69;4992339;28;20452;-45
2022/08/11 16:05:12;;;;;;;3.07;2.70;;;;;;;27.56;39.75;102298.22;4992092;28;20939;-42
2022/08/11 16:08:02;;;;;;;3.23;2.63;;;;;;;27.52;39.23;102300.69;4991661;28;20466;-44
2022/08/11 16:10:31;;;;;;;4.60;3.27;;;;;;;27.40;39.15;102300.09;4992132;28;20434;-45
2022/08/11 16:18:42;;;;;;;7.60;3.40;;;;;;;27.43;38.66;102291.34;4989329;28;20461;-46
2022/08/11 16:21:13;;;;;;;5.23;3.23;;;;;;;27.33;38.78;102288.56;4991765;28;20430;-44
2022/08/11 16:24:06;;;;;;;3.20;3.00;;;;;;;27.19;39.60;102292.91;4991627;28;20973;-43
2022/08/11 16:26:37;;;;;;;3.90;2.80;;;;;;;27.10;39.09;102286.31;4991872;28;20482;-46
2022/08/11 16:29:27;;;;;;;4.40;3.00;;;;;;;27.17;39.96;102281.41;4991337;28;20461;-44
2022/08/11 16:40:19;;;;;;;3.50;2.70;;;;;;;26.96;39.55;102279.72;4995188;28;20438;-43
2022/08/11 16:48:28;;;;;;;4.07;3.33;;;;;;;26.67;40.19;102274.63;4994618;28;20469;-43
2022/08/11 16:51:04;;;;;;;3.60;2.97;;;;;;;26.62;40.40;102277.34;4995240;28;20425;-43
2022/08/11 16:53:32;;;;;;;4.47;3.37;;;;;;;26.55;40.65;102273.22;4994938;28;20457;-45
2022/08/11 16:56:24;;;;;;;3.03;2.83;;;;;;;26.39;40.91;102272.31;4995089;28;20464;-44
2022/08/11 16:59:13;;;;;;;3.30;3.00;;;;;;;26.27;41.04;102271.69;4994773;28;20467;-42